createdAt,value
2019-05-29T00:01:49.359Z,10.08
2019-05-29T00:04:19.679Z,9.95
2019-05-29T00:06:49.994Z,9.80
2019-05-29T00:09:20.602Z,9.60
2019-05-29T00:11:51.869Z,9.38
2019-05-29T00:14:27.098Z,8.78
2019-05-29T00:16:54.035Z,8.75
2019-05-29T00:19:24.310Z,9.10
2019-05-29T00:21:54.571Z,9.10
2019-05-29T00:24:25.278Z,8.83
2019-05-29T00:26:55.687Z,8.35
2019-05-29T00:29:26.046Z,8.33
2019-05-29T00:31:56.375Z,8.95
2019-05-29T00:34:26.717Z,7.72
2019-05-29T00:36:56.974Z,8.10
2019-05-29T00:39:27.281Z,7.65
2019-05-29T00:41:57.598Z,7.60
2019-05-29T00:44:34.356Z,7.72
2019-05-29T00:47:01.084Z,7.47
2019-05-29T00:49:31.317Z,7.00
2019-05-29T00:52:01.578Z,7.40
2019-05-29T00:54:31.762Z,7.30
2019-05-29T00:57:01.986Z,13.90
2019-05-29T00:59:32.275Z,11.30
2019-05-29T01:02:02.520Z,9.98
2019-05-29T01:04:32.763Z,11.03
2019-05-29T01:07:03.145Z,10.25
2019-05-29T01:09:33.411Z,10.50
2019-05-29T01:12:03.680Z,9.00
2019-05-29T01:14:48.862Z,9.53
2019-05-29T01:17:05.900Z,9.60
2019-05-29T01:19:36.214Z,9.35
2019-05-29T01:22:06.510Z,9.15
2019-05-29T01:24:36.997Z,9.30
2019-05-29T01:27:07.253Z,7.97
2019-05-29T01:29:37.509Z,8.28
2019-05-29T01:32:07.617Z,8.25
2019-05-29T01:34:37.942Z,7.95
2019-05-29T01:37:08.382Z,7.40
2019-05-29T01:39:38.706Z,7.80
2019-05-29T01:42:08.988Z,7.20
2019-05-29T01:44:39.260Z,6.80
2019-05-29T01:47:09.526Z,6.87
2019-05-29T01:49:39.812Z,6.70
2019-05-29T01:52:10.114Z,6.58
2019-05-29T01:54:40.346Z,6.17
2019-05-29T01:57:10.622Z,6.12
2019-05-29T01:59:40.932Z,5.95
2019-05-29T02:02:11.191Z,5.75
2019-05-29T02:04:41.421Z,6.15
2019-05-29T02:07:11.646Z,5.08
2019-05-29T02:09:42.105Z,5.33
2019-05-29T02:12:12.276Z,4.92
2019-05-29T02:14:42.677Z,4.90
2019-05-29T02:17:12.917Z,4.62
2019-05-29T02:19:43.228Z,4.72
2019-05-29T02:22:13.570Z,4.53
2019-05-29T02:24:43.854Z,4.53
2019-05-29T02:27:14.152Z,4.97
2019-05-29T02:29:44.409Z,4.62
2019-05-29T02:32:14.619Z,4.95
2019-05-29T02:34:44.790Z,4.30
2019-05-29T02:37:14.984Z,3.77
2019-05-29T02:39:45.247Z,3.83
2019-05-29T02:42:15.506Z,4.00
2019-05-29T02:44:45.649Z,3.55
2019-05-29T02:47:15.858Z,3.87
2019-05-29T02:49:46.266Z,4.37
2019-05-29T02:52:16.484Z,4.05
2019-05-29T02:54:46.715Z,3.77
2019-05-29T02:57:16.825Z,3.92
2019-05-29T02:59:47.049Z,4.55
2019-05-29T03:02:17.275Z,10.75
2019-05-29T03:04:47.414Z,24.27
2019-05-29T03:07:17.545Z,24.37
2019-05-29T03:09:47.868Z,21.50
2019-05-29T03:12:18.265Z,16.48
2019-05-29T03:14:48.485Z,18.52
2019-05-29T03:17:18.762Z,23.18
2019-05-29T03:19:49.047Z,17.82
2019-05-29T03:22:19.369Z,24.12
2019-05-29T03:24:49.659Z,19.73
2019-05-29T03:27:19.919Z,22.93
2019-05-29T03:29:50.200Z,32.70
2019-05-29T03:32:20.472Z,29.10
2019-05-29T03:34:50.844Z,29.98
2019-05-29T03:37:21.092Z,22.42
2019-05-29T03:39:51.389Z,23.45
2019-05-29T03:42:21.631Z,25.70
2019-05-29T03:44:51.856Z,25.20
2019-05-29T03:47:22.148Z,24.40
2019-05-29T03:49:52.491Z,24.05
2019-05-29T03:52:22.687Z,22.07
2019-05-29T03:54:52.841Z,22.98
2019-05-29T03:57:23.170Z,22.73
2019-05-29T03:59:53.381Z,21.52
2019-05-29T04:02:23.678Z,22.07
2019-05-29T04:04:53.918Z,22.05
2019-05-29T04:07:24.159Z,21.10
2019-05-29T04:09:54.376Z,19.90
2019-05-29T04:12:24.694Z,21.15
2019-05-29T04:14:55.332Z,20.25
2019-05-29T04:17:25.976Z,20.23
2019-05-29T04:19:57.425Z,20.27
2019-05-29T04:22:32.910Z,19.60
2019-05-29T04:25:03.079Z,20.08
2019-05-29T04:27:34.271Z,19.25
2019-05-29T04:30:04.549Z,19.45
2019-05-29T04:32:36.393Z,17.92
2019-05-29T04:35:06.885Z,19.75
2019-05-29T04:37:39.477Z,17.25
2019-05-29T04:40:09.068Z,18.27
2019-05-29T04:42:40.086Z,18.17
2019-05-29T04:45:10.849Z,17.85
2019-05-29T04:47:41.249Z,17.75
2019-05-29T04:50:11.595Z,16.67
2019-05-29T04:52:41.766Z,16.52
2019-05-29T04:55:12.128Z,16.82
2019-05-29T04:57:42.368Z,16.75
2019-05-29T05:00:13.189Z,16.62
2019-05-29T05:02:43.436Z,16.32
2019-05-29T05:05:14.135Z,15.88
2019-05-29T05:07:44.381Z,16.27
2019-05-29T05:10:19.677Z,16.80
2019-05-29T05:12:49.952Z,15.65
2019-05-29T05:15:20.161Z,17.62
2019-05-29T05:17:50.503Z,16.02
2019-05-29T05:20:20.883Z,16.32
2019-05-29T05:22:51.247Z,16.65
2019-05-29T05:25:21.452Z,18.62
2019-05-29T05:27:51.670Z,17.45
2019-05-29T05:30:22.832Z,16.57
2019-05-29T05:32:53.107Z,16.65
2019-05-29T05:35:23.368Z,17.40
2019-05-29T05:37:53.793Z,17.17
2019-05-29T05:40:24.107Z,18.15
2019-05-29T05:42:54.404Z,17.60
2019-05-29T05:45:24.737Z,16.40
2019-05-29T05:47:57.825Z,16.05
2019-05-29T05:50:26.937Z,17.67
2019-05-29T05:52:57.235Z,16.75
2019-05-29T05:55:27.495Z,16.52
2019-05-29T05:57:57.708Z,17.27
2019-05-29T06:00:33.945Z,16.75
2019-05-29T06:03:04.272Z,16.97
2019-05-29T06:05:36.092Z,15.65
2019-05-29T06:08:06.677Z,16.23
2019-05-29T06:10:38.134Z,15.18
2019-05-29T06:13:08.423Z,16.60
2019-05-29T06:15:38.667Z,16.70
2019-05-29T06:18:20.699Z,16.27
2019-05-29T06:20:41.062Z,15.95
2019-05-29T06:23:11.265Z,15.45
2019-05-29T06:25:42.484Z,15.68
2019-05-29T06:28:13.488Z,15.55
2019-05-29T06:30:45.106Z,15.00
2019-05-29T06:33:15.363Z,14.45
2019-05-29T06:35:45.650Z,14.83
2019-05-29T06:38:15.889Z,14.98
2019-05-29T06:40:46.328Z,15.03
2019-05-29T06:43:23.567Z,15.00
2019-05-29T06:45:53.999Z,14.10
2019-05-29T06:48:41.294Z,14.80
2019-05-29T06:50:57.875Z,13.45
2019-05-29T06:53:28.273Z,13.50
2019-05-29T06:56:00.177Z,13.83
2019-05-29T06:58:31.891Z,14.20
2019-05-29T07:01:02.402Z,13.68
2019-05-29T07:03:32.648Z,13.08
2019-05-29T07:06:03.032Z,13.62
2019-05-29T07:08:39.124Z,12.60
2019-05-29T07:11:05.331Z,13.32
2019-05-29T07:13:37.706Z,13.03
2019-05-29T07:16:07.548Z,12.58
2019-05-29T07:18:38.597Z,12.80
2019-05-29T07:21:08.864Z,13.13
2019-05-29T07:23:41.237Z,13.60
2019-05-29T07:26:11.695Z,12.13
2019-05-29T07:29:02.026Z,12.20
2019-05-29T07:31:14.116Z,12.43
2019-05-29T07:33:45.262Z,11.75
2019-05-29T07:36:15.515Z,11.80
2019-05-29T07:38:56.170Z,12.28
2019-05-29T07:41:17.894Z,12.15
2019-05-29T07:43:48.243Z,11.75
2019-05-29T07:46:18.564Z,11.43
2019-05-29T07:48:50.409Z,10.50
2019-05-29T07:51:20.853Z,11.97
2019-05-29T07:53:52.102Z,12.00
2019-05-29T07:56:23.482Z,11.63
2019-05-29T07:59:02.725Z,11.28
2019-05-29T08:01:25.992Z,11.05
2019-05-29T08:03:56.271Z,10.93
2019-05-29T08:06:26.495Z,11.22
2019-05-29T08:08:56.772Z,10.63
2019-05-29T08:11:27.112Z,10.95
2019-05-29T08:13:57.351Z,10.13
2019-05-29T08:16:27.818Z,9.80
2019-05-29T08:18:58.165Z,10.25
2019-05-29T08:21:28.450Z,10.45
2019-05-29T08:23:58.730Z,9.73
2019-05-29T08:26:28.959Z,10.60
2019-05-29T08:28:59.487Z,10.10
2019-05-29T08:31:29.809Z,9.80
2019-05-29T08:34:00.106Z,9.35
2019-05-29T08:36:30.456Z,9.73
2019-05-29T08:39:00.721Z,9.33
2019-05-29T08:41:31.282Z,9.30
2019-05-29T08:44:01.557Z,9.35
2019-05-29T08:46:33.435Z,8.90
2019-05-29T08:49:03.856Z,9.08
2019-05-29T08:51:34.137Z,9.30
2019-05-29T08:54:21.020Z,8.70
2019-05-29T08:56:36.533Z,8.78
2019-05-29T08:59:06.901Z,9.25
2019-05-29T09:01:37.226Z,8.73
2019-05-29T09:04:07.415Z,8.50
2019-05-29T09:06:37.720Z,8.80
2019-05-29T09:09:08.563Z,8.80
2019-05-29T09:11:38.982Z,9.13
2019-05-29T09:14:09.169Z,8.40
2019-05-29T09:16:39.656Z,9.05
2019-05-29T09:19:10.446Z,8.30
2019-05-29T09:21:40.655Z,8.48
2019-05-29T09:24:12.857Z,8.18
2019-05-29T09:26:46.416Z,8.40
2019-05-29T09:29:19.995Z,8.43
2019-05-29T09:31:47.890Z,7.92
2019-05-29T09:34:18.812Z,8.23
2019-05-29T09:36:49.513Z,8.00
2019-05-29T09:39:20.995Z,7.87
2019-05-29T09:41:51.268Z,7.60
2019-05-29T09:44:33.868Z,7.87
2019-05-29T09:46:53.410Z,8.15
2019-05-29T09:49:23.959Z,7.70
2019-05-29T09:51:54.285Z,7.62
2019-05-29T09:54:24.633Z,7.83
2019-05-29T09:56:56.699Z,7.53
2019-05-29T09:59:27.128Z,7.40
2019-05-29T10:02:02.102Z,7.00
2019-05-29T10:04:29.414Z,7.25
2019-05-29T10:06:59.674Z,7.62
2019-05-29T10:09:30.043Z,7.10
2019-05-29T10:12:04.949Z,7.65
2019-05-29T10:14:32.415Z,7.33
2019-05-29T10:17:08.193Z,6.90
2019-05-29T10:19:35.561Z,7.55
2019-05-29T10:22:05.935Z,7.30
2019-05-29T10:24:37.290Z,7.08
2019-05-29T10:27:07.934Z,6.58
2019-05-29T10:29:38.249Z,7.00
2019-05-29T10:32:08.485Z,6.67
2019-05-29T10:34:38.634Z,6.67
2019-05-29T10:37:08.868Z,6.10
2019-05-29T10:39:39.177Z,6.62
2019-05-29T10:42:09.369Z,6.58
2019-05-29T10:44:39.637Z,6.53
2019-05-29T10:47:09.901Z,6.30
2019-05-29T10:49:40.257Z,6.55
2019-05-29T10:52:15.971Z,6.35
2019-05-29T10:54:42.548Z,6.17
2019-05-29T10:57:12.843Z,6.25
2019-05-29T10:59:43.097Z,6.70
2019-05-29T11:02:13.399Z,6.47
2019-05-29T11:04:47.584Z,6.20
2019-05-29T11:07:15.588Z,6.35
2019-05-29T11:09:46.912Z,6.20
2019-05-29T11:12:18.717Z,6.20
2019-05-29T11:14:49.098Z,5.87
2019-05-29T11:17:19.333Z,6.97
2019-05-29T11:19:49.528Z,6.35
2019-05-29T11:22:26.357Z,5.60
2019-05-29T11:24:52.360Z,5.60
2019-05-29T11:27:26.062Z,5.90
2019-05-29T11:29:55.189Z,5.90
2019-05-29T11:32:25.572Z,6.15
2019-05-29T11:34:55.777Z,5.92
2019-05-29T11:37:26.005Z,5.78
2019-05-29T11:39:56.828Z,5.55
2019-05-29T11:42:28.296Z,5.08
2019-05-29T11:44:59.583Z,5.50
2019-05-29T11:47:29.947Z,5.80
2019-05-29T11:50:10.202Z,5.67
2019-05-29T11:52:42.518Z,5.05
2019-05-29T11:55:07.939Z,5.90
2019-05-29T11:57:39.454Z,5.53
2019-05-29T12:00:18.977Z,5.17
2019-05-29T12:02:40.627Z,5.42
2019-05-29T12:05:11.034Z,5.15
2019-05-29T12:07:41.286Z,5.53
2019-05-29T12:10:11.930Z,5.00
2019-05-29T12:12:42.194Z,4.85
2019-05-29T12:15:15.550Z,5.37
2019-05-29T12:17:44.664Z,4.80
2019-05-29T12:20:27.244Z,4.70
2019-05-29T12:23:11.416Z,4.80
2019-05-29T12:25:18.773Z,4.97
2019-05-29T12:27:49.077Z,4.85
2019-05-29T12:30:19.415Z,5.15
2019-05-29T12:32:49.799Z,5.15
2019-05-29T12:35:20.047Z,4.90
2019-05-29T12:37:50.252Z,4.62
2019-05-29T12:40:20.509Z,5.05
2019-05-29T12:42:53.423Z,4.60
2019-05-29T12:45:23.888Z,4.87
2019-05-29T12:47:55.796Z,4.17
2019-05-29T12:50:26.284Z,4.62
2019-05-29T12:52:57.702Z,4.62
2019-05-29T12:55:28.082Z,4.12
2019-05-29T12:57:58.436Z,5.12
2019-05-29T13:00:29.183Z,4.20
2019-05-29T13:03:00.750Z,4.53
2019-05-29T13:05:32.323Z,4.28
2019-05-29T13:08:05.119Z,4.20
2019-05-29T13:10:35.434Z,4.03
2019-05-29T13:13:10.763Z,4.72
2019-05-29T13:15:37.953Z,4.30
2019-05-29T13:18:10.077Z,4.55
2019-05-29T13:20:40.258Z,4.08
2019-05-29T13:23:11.574Z,4.05
2019-05-29T13:25:41.924Z,4.20
2019-05-29T13:28:12.229Z,3.67
2019-05-29T13:30:42.499Z,3.92
2019-05-29T13:33:12.710Z,3.67
2019-05-29T13:35:47.127Z,3.10
2019-05-29T13:38:17.433Z,3.55
2019-05-29T13:40:47.694Z,2.42
2019-05-29T13:43:17.797Z,3.15
2019-05-29T13:45:47.890Z,2.85
2019-05-29T13:48:18.004Z,3.00
2019-05-29T13:50:48.945Z,2.90
2019-05-29T13:53:19.134Z,3.22
2019-05-29T13:55:49.247Z,2.77
2019-05-29T13:58:19.384Z,2.77
2019-05-29T14:00:49.574Z,3.20
2019-05-29T14:03:19.744Z,3.22
2019-05-29T14:05:49.938Z,3.20
2019-05-29T14:08:20.120Z,2.80
2019-05-29T14:10:51.523Z,3.42
2019-05-29T14:13:21.641Z,2.80
2019-05-29T14:15:51.766Z,2.65
2019-05-29T14:18:21.946Z,3.10
2019-05-29T14:20:52.136Z,2.80
2019-05-29T14:23:23.314Z,3.00
2019-05-29T14:25:54.530Z,2.83
2019-05-29T14:28:24.712Z,3.35
2019-05-29T14:30:54.855Z,2.70
2019-05-29T14:33:24.950Z,3.05
2019-05-29T14:35:55.077Z,2.75
2019-05-29T14:38:25.261Z,2.75
2019-05-29T14:40:55.357Z,2.80
2019-05-29T14:43:25.498Z,2.60
2019-05-29T14:45:55.606Z,2.77
2019-05-29T14:48:25.824Z,2.45
2019-05-29T14:50:56.026Z,2.52
2019-05-29T14:53:26.381Z,2.72
2019-05-29T14:55:56.506Z,2.45
2019-05-29T14:58:26.652Z,2.70
2019-05-29T15:00:56.901Z,2.47
2019-05-29T15:03:27.191Z,2.60
2019-05-29T15:05:57.454Z,2.52
2019-05-29T15:08:27.519Z,2.67
2019-05-29T15:10:57.637Z,2.58
2019-05-29T15:13:27.978Z,2.83
2019-05-29T15:15:58.116Z,2.67
2019-05-29T15:18:28.285Z,2.52
2019-05-29T15:20:58.410Z,2.40
2019-05-29T15:23:28.507Z,2.70
2019-05-29T15:25:58.668Z,2.62
2019-05-29T15:28:28.815Z,2.60
2019-05-29T15:30:59.000Z,2.65
2019-05-29T15:33:29.132Z,2.20
2019-05-29T15:35:59.234Z,2.10
2019-05-29T15:38:29.643Z,2.37
2019-05-29T15:40:59.789Z,2.60
2019-05-29T15:43:29.908Z,2.37
2019-05-29T15:46:00.074Z,2.00
2019-05-29T15:48:30.215Z,2.17
2019-05-29T15:51:00.339Z,19.35
2019-05-29T15:53:30.685Z,24.72
2019-05-29T15:56:16.979Z,36.40
2019-05-29T15:58:32.705Z,32.48
2019-05-29T16:01:02.880Z,27.52
2019-05-29T16:03:33.065Z,22.32
2019-05-29T16:06:03.432Z,19.20
2019-05-29T16:08:33.584Z,15.00
2019-05-29T16:11:03.694Z,12.18
2019-05-29T16:13:34.721Z,12.13
2019-05-29T16:16:04.838Z,46.28
2019-05-29T16:18:34.953Z,67.70
2019-05-29T16:21:05.099Z,48.68
2019-05-29T16:23:36.125Z,38.80
2019-05-29T16:26:06.367Z,32.10
2019-05-29T16:28:36.504Z,28.50
2019-05-29T16:31:06.752Z,26.70
2019-05-29T16:33:36.916Z,25.17
2019-05-29T16:36:07.034Z,24.82
2019-05-29T16:38:37.177Z,24.37
2019-05-29T16:41:07.297Z,24.10
2019-05-29T16:43:37.512Z,23.40
2019-05-29T16:46:07.631Z,22.77
2019-05-29T16:48:37.897Z,21.77
2019-05-29T16:51:08.044Z,20.85
2019-05-29T16:53:38.179Z,20.68
2019-05-29T16:56:08.315Z,19.62
2019-05-29T16:58:38.443Z,18.62
2019-05-29T17:01:08.564Z,25.02
2019-05-29T17:03:38.707Z,52.93
2019-05-29T17:06:08.827Z,45.90
2019-05-29T17:08:38.957Z,30.80
2019-05-29T17:11:09.151Z,19.67
2019-05-29T17:13:40.336Z,28.35
2019-05-29T17:16:10.443Z,40.70
2019-05-29T17:18:40.648Z,25.65
2019-05-29T17:21:10.823Z,17.32
2019-05-29T17:23:40.969Z,18.42
2019-05-29T17:26:11.464Z,18.00
2019-05-29T17:28:41.557Z,19.55
2019-05-29T17:31:11.782Z,19.95
2019-05-29T17:33:41.961Z,42.40
2019-05-29T17:36:12.185Z,45.63
2019-05-29T17:38:45.198Z,41.08
2019-05-29T17:41:15.341Z,35.20
2019-05-29T17:43:46.528Z,29.87
2019-05-29T17:46:17.472Z,30.10
2019-05-29T17:48:47.698Z,19.57
2019-05-29T17:51:17.916Z,22.17
2019-05-29T17:53:48.166Z,12.82
2019-05-29T17:56:31.986Z,16.40
2019-05-29T17:58:50.247Z,19.80
2019-05-29T18:01:20.548Z,28.52
2019-05-29T18:03:50.733Z,25.08
2019-05-29T18:06:20.980Z,17.62
2019-05-29T18:08:51.218Z,16.05
2019-05-29T18:11:21.459Z,7.28
2019-05-29T18:13:51.625Z,5.90
2019-05-29T18:16:23.541Z,7.28
2019-05-29T18:18:54.123Z,6.55
2019-05-29T18:21:25.758Z,6.83
2019-05-29T18:23:56.226Z,6.47
2019-05-29T18:26:42.648Z,5.75
2019-05-29T18:28:58.784Z,6.03
2019-05-29T18:31:29.470Z,5.42
2019-05-29T18:33:59.909Z,5.05
2019-05-29T18:36:31.394Z,8.05
2019-05-29T18:39:03.842Z,9.43
2019-05-29T18:41:34.402Z,10.32
2019-05-29T18:44:05.236Z,11.83
2019-05-29T18:46:38.058Z,11.90
2019-05-29T18:49:07.959Z,13.22
2019-05-29T18:51:38.456Z,12.95
2019-05-29T18:54:08.912Z,13.70
2019-05-29T18:56:42.118Z,14.13
2019-05-29T18:59:12.341Z,13.53
2019-05-29T19:01:42.904Z,14.10
2019-05-29T19:04:13.370Z,14.87
2019-05-29T19:06:45.168Z,15.83
2019-05-29T19:09:15.608Z,14.07
2019-05-29T19:11:45.964Z,15.53
2019-05-29T19:14:16.198Z,30.35
2019-05-29T19:16:46.738Z,38.95
2019-05-29T19:19:16.995Z,40.17
2019-05-29T19:21:47.393Z,33.45
2019-05-29T19:24:17.727Z,35.83
2019-05-29T19:26:47.989Z,37.67
2019-05-29T19:29:18.369Z,38.53
2019-05-29T19:31:49.336Z,37.40
2019-05-29T19:34:19.570Z,39.73
2019-05-29T19:36:49.848Z,37.88
2019-05-29T19:39:20.065Z,37.98
2019-05-29T19:41:50.321Z,37.35
2019-05-29T19:44:21.528Z,38.00
2019-05-29T19:46:54.105Z,31.50
2019-05-29T19:49:25.419Z,30.30
2019-05-29T19:51:56.074Z,30.23
2019-05-29T19:54:27.463Z,29.40
2019-05-29T19:56:57.946Z,29.70
2019-05-29T19:59:28.229Z,30.20
2019-05-29T20:01:58.411Z,29.12
2019-05-29T20:04:30.550Z,28.85
2019-05-29T20:07:00.759Z,28.67
2019-05-29T20:09:31.279Z,27.93
2019-05-29T20:12:01.575Z,28.38
2019-05-29T20:14:32.063Z,27.55
2019-05-29T20:17:02.344Z,27.10
2019-05-29T20:19:35.829Z,26.62
2019-05-29T20:22:04.649Z,25.17
2019-05-29T20:24:35.017Z,25.52
2019-05-29T20:27:05.301Z,24.72
2019-05-29T20:29:36.431Z,23.73
2019-05-29T20:32:07.924Z,24.30
2019-05-29T20:34:39.010Z,29.00
2019-05-29T20:37:09.401Z,26.15
2019-05-29T20:39:39.629Z,26.25
2019-05-29T20:42:12.115Z,29.02
2019-05-29T20:44:43.046Z,27.00
2019-05-29T20:47:13.420Z,27.20
2019-05-29T20:49:47.321Z,27.48
2019-05-29T20:52:15.586Z,27.87
2019-05-29T20:54:45.790Z,26.10
2019-05-29T20:57:15.965Z,26.85
2019-05-29T20:59:46.179Z,27.37
2019-05-29T21:02:16.360Z,28.60
2019-05-29T21:04:46.475Z,30.02
2019-05-29T21:07:16.588Z,30.52
2019-05-29T21:09:46.712Z,33.92
2019-05-29T21:12:16.901Z,36.83
2019-05-29T21:14:47.013Z,40.52
2019-05-29T21:17:18.173Z,43.38
2019-05-29T21:19:48.418Z,44.27
2019-05-29T21:22:18.528Z,43.58
2019-05-29T21:24:59.965Z,43.60
2019-05-29T21:27:20.544Z,43.17
2019-05-29T21:29:50.650Z,43.60
2019-05-29T21:32:20.844Z,42.73
2019-05-29T21:34:51.031Z,43.68
2019-05-29T21:37:21.164Z,44.33
2019-05-29T21:39:51.266Z,43.38
2019-05-29T21:42:21.404Z,42.65
2019-05-29T21:44:51.550Z,44.63
2019-05-29T21:47:21.693Z,40.58
2019-05-29T21:49:51.860Z,42.78
2019-05-29T21:52:22.034Z,43.10
2019-05-29T21:54:52.168Z,41.80
2019-05-29T21:57:22.322Z,41.83
2019-05-29T21:59:52.500Z,42.88
2019-05-29T22:02:23.004Z,45.17
2019-05-29T22:04:53.185Z,51.90
2019-05-29T22:07:23.315Z,59.05
2019-05-29T22:09:54.568Z,62.20
2019-05-29T22:12:24.658Z,72.70
2019-05-29T22:14:55.174Z,59.60
2019-05-29T22:17:25.345Z,56.42
2019-05-29T22:19:55.495Z,53.35
2019-05-29T22:22:25.597Z,52.58
2019-05-29T22:24:55.729Z,53.58
2019-05-29T22:27:26.843Z,53.92
2019-05-29T22:29:57.402Z,53.08
2019-05-29T22:32:28.712Z,51.60
2019-05-29T22:34:59.599Z,51.13
2019-05-29T22:37:29.903Z,51.33
2019-05-29T22:40:00.171Z,51.95
2019-05-29T22:42:30.454Z,50.45
2019-05-29T22:45:02.106Z,50.85
2019-05-29T22:47:32.577Z,52.33
2019-05-29T22:50:06.333Z,50.90
2019-05-29T22:52:36.687Z,50.73
2019-05-29T22:55:07.022Z,50.63
2019-05-29T22:57:37.259Z,49.58
2019-05-29T23:00:08.168Z,49.65
2019-05-29T23:02:38.420Z,48.92
2019-05-29T23:05:08.737Z,47.98
2019-05-29T23:07:39.037Z,48.85
2019-05-29T23:10:09.384Z,47.50
2019-05-29T23:12:39.681Z,48.10
2019-05-29T23:15:10.077Z,47.60
2019-05-29T23:17:40.365Z,48.28
2019-05-29T23:20:10.676Z,47.48
2019-05-29T23:22:40.896Z,48.02
2019-05-29T23:25:11.194Z,44.95
2019-05-29T23:27:41.349Z,46.15
2019-05-29T23:30:12.749Z,45.83
2019-05-29T23:32:42.911Z,46.13
2019-05-29T23:35:13.129Z,44.65
2019-05-29T23:37:43.415Z,44.45
2019-05-29T23:40:13.653Z,44.33
2019-05-29T23:42:43.988Z,44.77
2019-05-29T23:45:14.280Z,45.67
2019-05-29T23:47:44.628Z,44.03
2019-05-29T23:50:15.026Z,43.83
2019-05-29T23:52:45.197Z,42.50
2019-05-29T23:55:15.419Z,42.55
2019-05-29T23:57:45.818Z,42.55
